sensor_id;sensor_type;location;lat;lon;timestamp;P1;durP1;ratioP1;P2;durP2;ratioP2
1048;SDS011;513;51.444;7.196;2023-03-23T00:01:28;9.20;;;5.90;;
1048;SDS011;513;51.444;7.196;2023-03-23T00:03:57;6.75;;;5.55;;
1048;SDS011;513;51.444;7.196;2023-03-23T00:06:25;9.10;;;5.10;;
1048;SDS011;513;51.444;7.196;2023-03-23T00:08:54;9.38;;;5.35;;
1048;SDS011;513;51.444;7.196;2023-03-23T00:11:24;10.33;;;5.20;;
1048;SDS011;513;51.444;7.196;2023-03-23T00:13:54;9.25;;;4.60;;
1048;SDS011;513;51.444;7.196;2023-03-23T00:16:26;8.27;;;4.60;;
1048;SDS011;513;51.444;7.196;2023-03-23T00:18:56;6.07;;;4.28;;
1048;SDS011;513;51.444;7.196;2023-03-23T00:21:24;7.93;;;4.38;;
1048;SDS011;513;51.444;7.196;2023-03-23T00:24:00;6.07;;;4.28;;
1048;SDS011;513;51.444;7.196;2023-03-23T00:26:28;6.60;;;3.90;;
1048;SDS011;513;51.444;7.196;2023-03-23T00:28:58;6.38;;;4.30;;
1048;SDS011;513;51.444;7.196;2023-03-23T00:31:26;5.43;;;3.90;;
1048;SDS011;513;51.444;7.196;2023-03-23T00:33:57;4.75;;;3.65;;
1048;SDS011;513;51.444;7.196;2023-03-23T00:36:26;6.40;;;3.40;;
1048;SDS011;513;51.444;7.196;2023-03-23T00:38:53;5.50;;;3.33;;
1048;SDS011;513;51.444;7.196;2023-03-23T00:41:25;6.30;;;3.47;;
1048;SDS011;513;51.444;7.196;2023-03-23T00:43:52;3.95;;;3.10;;
1048;SDS011;513;51.444;7.196;2023-03-23T00:46:20;4.78;;;3.38;;
1048;SDS011;513;51.444;7.196;2023-03-23T00:48:47;7.57;;;3.00;;
1048;SDS011;513;51.444;7.196;2023-03-23T00:51:15;4.53;;;3.10;;
1048;SDS011;513;51.444;7.196;2023-03-23T00:53:42;5.07;;;3.10;;
1048;SDS011;513;51.444;7.196;2023-03-23T00:56:10;4.43;;;3.13;;
1048;SDS011;513;51.444;7.196;2023-03-23T00:58:38;5.20;;;3.10;;
1048;SDS011;513;51.444;7.196;2023-03-23T01:01:05;3.58;;;2.70;;
1048;SDS011;513;51.444;7.196;2023-03-23T01:03:32;5.63;;;2.88;;
1048;SDS011;513;51.444;7.196;2023-03-23T01:06:03;4.80;;;2.55;;
1048;SDS011;513;51.444;7.196;2023-03-23T01:08:33;4.13;;;2.60;;
1048;SDS011;513;51.444;7.196;2023-03-23T01:11:02;3.80;;;2.83;;
1048;SDS011;513;51.444;7.196;2023-03-23T01:13:31;4.30;;;2.90;;
1048;SDS011;513;51.444;7.196;2023-03-23T01:16:00;4.18;;;2.78;;
1048;SDS011;513;51.444;7.196;2023-03-23T01:18:27;6.65;;;3.05;;
1048;SDS011;513;51.444;7.196;2023-03-23T01:20:54;3.95;;;2.95;;
1048;SDS011;513;51.444;7.196;2023-03-23T01:23:21;4.47;;;2.63;;
1048;SDS011;513;51.444;7.196;2023-03-23T01:25:47;4.05;;;2.80;;
1048;SDS011;513;51.444;7.196;2023-03-23T01:28:14;4.88;;;3.20;;
1048;SDS011;513;51.444;7.196;2023-03-23T01:30:41;3.70;;;2.83;;
1048;SDS011;513;51.444;7.196;2023-03-23T01:33:09;5.07;;;2.70;;
1048;SDS011;513;51.444;7.196;2023-03-23T01:35:37;5.43;;;2.70;;
1048;SDS011;513;51.444;7.196;2023-03-23T01:38:04;4.73;;;2.60;;
1048;SDS011;513;51.444;7.196;2023-03-23T01:40:30;3.72;;;2.83;;
1048;SDS011;513;51.444;7.196;2023-03-23T01:42:57;5.25;;;2.83;;
1048;SDS011;513;51.444;7.196;2023-03-23T01:45:26;4.53;;;2.85;;
1048;SDS011;513;51.444;7.196;2023-03-23T01:48:00;3.85;;;2.75;;
1048;SDS011;513;51.444;7.196;2023-03-23T01:50:32;4.77;;;2.80;;
1048;SDS011;513;51.444;7.196;2023-03-23T01:53:03;4.13;;;2.95;;
1048;SDS011;513;51.444;7.196;2023-03-23T01:55:33;3.17;;;2.55;;
1048;SDS011;513;51.444;7.196;2023-03-23T01:58:03;4.32;;;2.88;;
1048;SDS011;513;51.444;7.196;2023-03-23T02:00:31;4.05;;;2.60;;
1048;SDS011;513;51.444;7.196;2023-03-23T02:02:58;4.78;;;2.40;;
1048;SDS011;513;51.444;7.196;2023-03-23T02:05:28;3.33;;;2.22;;
1048;SDS011;513;51.444;7.196;2023-03-23T02:08:00;2.70;;;2.22;;
1048;SDS011;513;51.444;7.196;2023-03-23T02:10:29;3.95;;;2.40;;
1048;SDS011;513;51.444;7.196;2023-03-23T02:12:56;3.53;;;2.50;;
1048;SDS011;513;51.444;7.196;2023-03-23T02:15:24;3.50;;;2.38;;
1048;SDS011;513;51.444;7.196;2023-03-23T02:17:55;3.88;;;2.38;;
1048;SDS011;513;51.444;7.196;2023-03-23T02:20:34;3.70;;;2.70;;
1048;SDS011;513;51.444;7.196;2023-03-23T02:23:17;3.63;;;2.42;;
1048;SDS011;513;51.444;7.196;2023-03-23T02:26:17;5.05;;;2.90;;
1048;SDS011;513;51.444;7.196;2023-03-23T02:28:55;3.83;;;2.63;;
1048;SDS011;513;51.444;7.196;2023-03-23T02:31:47;3.65;;;2.80;;
1048;SDS011;513;51.444;7.196;2023-03-23T02:34:32;5.07;;;3.33;;
1048;SDS011;513;51.444;7.196;2023-03-23T02:37:07;3.92;;;3.15;;
1048;SDS011;513;51.444;7.196;2023-03-23T02:39:37;3.85;;;2.95;;
1048;SDS011;513;51.444;7.196;2023-03-23T02:42:10;5.25;;;3.08;;
1048;SDS011;513;51.444;7.196;2023-03-23T02:44:40;4.32;;;3.15;;
1048;SDS011;513;51.444;7.196;2023-03-23T02:47:12;6.10;;;3.60;;
1048;SDS011;513;51.444;7.196;2023-03-23T02:49:44;4.93;;;3.40;;
1048;SDS011;513;51.444;7.196;2023-03-23T02:52:14;5.07;;;3.40;;
1048;SDS011;513;51.444;7.196;2023-03-23T02:54:46;4.20;;;3.35;;
